Time;durP1;ratioP1;P1;durP2;ratioP2;P2;SDS_P1;SDS_P2;PMS_P1;PMS_P2;Temp;Humidity;BMP_temperature;BMP_pressure;BME280_temperature;BME280_humidity;BME280_pressure;Samples;Min_cycle;Max_cycle;Signal;HPM_P1;HPM_P2
2023/10/12 00:00:42;;;;;;;44.15;22.98;;;;;;;21.20;67.35;101674.41;5989919;23;20061;-80
2023/10/12 00:03:12;;;;;;;41.65;21.50;;;;;;;21.16;67.30;101665.81;6016012;23;20142;-79
2023/10/12 00:05:45;;;;;;;40.70;22.08;;;;;;;21.22;67.33;101680.47;6000754;23;20671;-82
2023/10/12 00:08:32;;;;;;;38.92;21.98;;;;;;;21.03;67.42;101650.22;5953789;23;20105;-81
2023/10/12 00:11:06;;;;;;;40.75;21.15;;;;;;;21.16;67.40;101670.38;5973372;23;20250;-80
2023/10/12 00:13:37;;;;;;;49.05;21.42;;;;;;;21.15;67.38;101674.97;6018583;23;20463;-80
2023/10/12 00:16:21;;;;;;;34.83;19.98;;;;;;;20.98;67.58;101652.63;5972431;23;20868;-82
2023/10/12 00:18:52;;;;;;;37.63;21.92;;;;;;;21.08;67.64;101669.44;5974524;23;20050;-81
2023/10/12 00:21:25;;;;;;;40.80;22.42;;;;;;;20.56;67.52;101583.78;5989618;23;20351;-81
2023/10/12 00:23:54;;;;;;;33.25;22.48;;;;;;;20.56;67.52;101578.38;5994507;23;20098;-80
2023/10/12 00:26:30;;;;;;;39.50;23.02;;;;;;;20.97;67.37;101645.56;5991864;23;20026;-81
2023/10/12 00:28:57;;;;;;;49.72;21.73;;;;;;;20.94;67.41;101639.69;5981821;23;20026;-80
2023/10/12 00:31:25;;;;;;;42.83;23.35;;;;;;;20.32;67.77;101535.34;5971469;23;20023;-81
2023/10/12 00:33:52;;;;;;;37.45;22.33;;;;;;;21.04;68.05;101668.09;5991774;23;20042;-81
2023/10/12 00:36:22;;;;;;;41.45;23.10;;;;;;;21.01;68.14;101663.06;5991993;23;20487;-80
2023/10/12 00:38:56;;;;;;;42.92;23.10;;;;;;;20.95;67.69;101658.41;5999618;23;20117;-82
2023/10/12 00:41:31;;;;;;;45.70;23.67;;;;;;;20.64;68.03;101608.00;6001504;23;20051;-81
2023/10/12 00:46:58;;;;;;;43.28;23.00;;;;;;;20.79;68.48;101637.75;6027221;23;20380;-80
2023/10/12 00:49:41;;;;;;;36.20;22.42;;;;;;;20.76;68.49;101648.06;5990052;23;20475;-81
2023/10/12 00:52:08;;;;;;;42.00;24.33;;;;;;;20.88;68.15;101662.84;5981609;23;20355;-81
2023/10/12 00:54:49;;;;;;;42.97;22.30;;;;;;;20.81;68.22;101648.38;5988245;23;20135;-81
2023/10/12 00:57:24;;;;;;;43.45;23.35;;;;;;;20.69;68.41;101632.56;6019394;23;20122;-80
2023/10/12 00:59:52;;;;;;;37.70;21.98;;;;;;;20.52;68.24;101606.69;5982288;23;20515;-80
2023/10/12 01:02:24;;;;;;;42.40;22.75;;;;;;;20.70;68.48;101644.19;6000611;23;20033;-80
2023/10/12 01:04:53;;;;;;;46.63;23.55;;;;;;;20.72;68.31;101633.25;6002501;23;20026;-80
2023/10/12 01:07:25;;;;;;;37.28;22.25;;;;;;;20.60;68.03;101612.06;5999509;23;20027;-80
2023/10/12 01:10:03;;;;;;;39.17;22.52;;;;;;;20.70;67.97;101623.47;6026830;23;20294;-81
2023/10/12 01:12:33;;;;;;;37.85;23.55;;;;;;;20.70;67.78;101622.63;6002789;23;20097;-80
2023/10/12 01:15:08;;;;;;;46.72;23.15;;;;;;;20.65;67.86;101615.06;5999870;23;20088;-81
2023/10/12 01:17:40;;;;;;;45.15;23.48;;;;;;;20.76;68.17;101630.00;6008971;23;20027;-80
2023/10/12 01:20:16;;;;;;;39.78;22.02;;;;;;;20.60;67.89;101605.81;6039792;23;20098;-79
2023/10/12 01:22:47;;;;;;;57.20;31.15;;;;;;;20.74;68.10;101628.50;6000421;23;20023;-79
2023/10/12 01:25:21;;;;;;;35.72;21.80;;;;;;;20.77;67.71;101628.16;6005696;23;20495;-78
2023/10/12 01:27:48;;;;;;;33.97;22.27;;;;;;;20.77;67.79;101628.97;5990216;23;20023;-80
2023/10/12 01:30:22;;;;;;;43.13;22.02;;;;;;;20.64;67.50;101596.38;6007956;23;20120;-80
2023/10/12 01:32:55;;;;;;;41.53;21.90;;;;;;;20.56;67.95;101602.66;5995508;23;20019;-78
2023/10/12 01:35:39;;;;;;;43.17;21.63;;;;;;;20.66;67.82;101616.75;6025899;23;20022;-79
2023/10/12 01:38:08;;;;;;;35.95;22.30;;;;;;;20.53;68.20;101600.25;6031928;23;20347;-81
2023/10/12 01:43:14;;;;;;;37.78;21.65;;;;;;;20.33;68.32;101572.91;6014074;23;20027;-79
2023/10/12 01:45:41;;;;;;;34.15;21.05;;;;;;;20.60;68.54;101625.53;5991163;23;20528;-81
2023/10/12 01:50:40;;;;;;;36.50;21.25;;;;;;;20.63;68.34;101627.91;6015813;23;20346;-81
2023/10/12 01:53:29;;;;;;;45.65;21.30;;;;;;;20.58;68.22;101624.88;6029322;23;20447;-79
2023/10/12 01:56:00;;;;;;;41.92;22.40;;;;;;;20.67;67.67;101636.47;6002425;23;20030;-80
2023/10/12 01:58:35;;;;;;;42.67;23.08;;;;;;;20.66;67.73;101637.50;6003310;23;20027;-80
2023/10/12 02:01:24;;;;;;;36.58;22.73;;;;;;;20.65;67.83;101644.72;5999231;23;20023;-79
2023/10/12 02:03:55;;;;;;;37.70;21.52;;;;;;;20.52;67.72;101624.75;6014050;23;20745;-79
2023/10/12 02:06:28;;;;;;;38.15;20.67;;;;;;;20.65;67.65;101647.44;6027745;23;20027;-79
2023/10/12 02:09:08;;;;;;;33.40;21.33;;;;;;;20.68;67.73;101652.50;6002089;23;20340;-79
2023/10/12 02:11:45;;;;;;;34.28;21.73;;;;;;;20.57;67.67;101619.69;6031792;23;20058;-79
2023/10/12 02:14:15;;;;;;;42.28;21.60;;;;;;;20.63;67.89;101627.91;6004602;23;20298;-78
2023/10/12 02:16:53;;;;;;;39.47;22.05;;;;;;;20.71;67.77;101645.91;5976081;23;20057;-79
2023/10/12 02:22:29;;;;;;;44.28;22.63;;;;;;;20.60;67.91;101644.44;5885758;24;20586;-78
2023/10/12 02:25:09;;;;;;;36.75;21.27;;;;;;;20.56;67.83;101643.13;5974086;23;20041;-79
2023/10/12 02:27:41;;;;;;;39.58;21.88;;;;;;;20.64;67.55;101651.16;5973648;23;20029;-79
2023/10/12 02:30:14;;;;;;;36.75;20.77;;;;;;;20.56;67.30;101636.88;5979956;23;20391;-79
2023/10/12 02:32:46;;;;;;;36.05;20.67;;;;;;;20.65;66.63;101625.84;6020731;23;20082;-79
2023/10/12 02:35:15;;;;;;;53.65;22.20;;;;;;;20.77;66.28;101637.06;5974744;23;20030;-79
2023/10/12 02:37:42;;;;;;;37.08;22.00;;;;;;;20.81;66.18;101645.66;5978980;23;20046;-78
2023/10/12 02:40:16;;;;;;;39.42;21.38;;;;;;;20.76;66.08;101635.41;5983007;23;20522;-81
2023/10/12 02:42:51;;;;;;;33.70;20.30;;;;;;;20.80;66.49;101641.28;5954892;23;20220;-79
2023/10/12 02:45:27;;;;;;;36.30;21.63;;;;;;;20.76;66.50;101642.66;5995874;23;20037;-79
2023/10/12 02:47:54;;;;;;;37.53;21.60;;;;;;;20.72;66.27;101634.06;5946428;23;20034;-77
2023/10/12 02:50:27;;;;;;;37.20;20.90;;;;;;;20.78;66.75;101638.78;5970370;23;20523;-80
2023/10/12 02:52:59;;;;;;;37.13;22.60;;;;;;;20.69;66.88;101624.47;5958741;23;20031;-80
2023/10/12 02:55:48;;;;;;;36.53;21.73;;;;;;;20.67;67.10;101637.31;5955839;23;20023;-80
2023/10/12 02:58:23;;;;;;;33.65;21.15;;;;;;;20.68;66.98;101655.19;5982540;23;20189;-81
2023/10/12 03:00:56;;;;;;;39.95;20.67;;;;;;;20.55;67.02;101646.81;5983414;23;20607;-81
2023/10/12 03:05:58;;;;;;;43.58;22.52;;;;;;;20.25;67.48;101603.47;5979516;23;20023;-81
2023/10/12 03:08:34;;;;;;;35.08;21.17;;;;;;;20.50;68.16;101649.19;6002013;23;20026;-79
2023/10/12 03:13:39;;;;;;;35.28;20.30;;;;;;;20.46;68.09;101658.63;5992221;23;20063;-80
2023/10/12 03:16:15;;;;;;;35.75;21.15;;;;;;;20.14;68.45;101606.53;5956501;23;20494;-78
2023/10/12 03:18:57;;;;;;;40.63;21.02;;;;;;;20.36;68.26;101647.22;6005741;23;20220;-80
2023/10/12 03:21:27;;;;;;;37.38;21.50;;;;;;;20.33;68.82;101647.56;5962669;23;20090;-80
2023/10/12 03:24:05;;;;;;;34.47;20.85;;;;;;;20.35;68.87;101659.88;5980444;23;20114;-80
2023/10/12 03:27:27;;;;;;;34.72;19.73;;;;;;;20.03;68.82;101613.16;5962810;23;20610;-80
2023/10/12 03:29:54;;;;;;;34.30;21.17;;;;;;;20.25;69.08;101651.16;6000562;23;20362;-80
2023/10/12 03:32:25;;;;;;;34.17;19.33;;;;;;;20.21;69.51;101650.66;6022636;23;20023;-81
2023/10/12 03:34:56;;;;;;;34.42;21.80;;;;;;;20.26;69.28;101658.22;6003520;23;20498;-80
2023/10/12 03:42:55;;;;;;;39.58;22.10;;;;;;;20.27;68.98;101658.06;6026083;23;20367;-79
2023/10/12 03:45:59;;;;;;;33.35;20.65;;;;;;;20.30;68.90;101659.56;5990010;23;20355;-80
2023/10/12 03:48:26;;;;;;;34.10;20.92;;;;;;;19.94;68.54;101599.88;5998981;23;20019;-79
2023/10/12 03:50:58;;;;;;;41.03;22.83;;;;;;;20.27;68.19;101644.56;6027671;23;20038;-79
2023/10/12 03:53:34;;;;;;;33.97;20.77;;;;;;;20.36;68.44;101649.91;6013707;23;20567;-80
2023/10/12 03:56:03;;;;;;;31.20;20.13;;;;;;;20.31;68.35;101636.97;6001474;23;20441;-80
2023/10/12 03:58:38;;;;;;;40.33;21.92;;;;;;;20.37;68.60;101654.31;6013347;23;20027;-78
2023/10/12 04:01:43;;;;;;;42.78;23.38;;;;;;;20.34;68.65;101654.63;6021637;23;20030;-78
2023/10/12 04:04:46;;;;;;;32.45;19.77;;;;;;;20.04;68.84;101614.81;6028967;23;20030;-78
2023/10/12 04:07:16;;;;;;;36.50;20.88;;;;;;;20.19;68.90;101636.50;6028960;23;20027;-79
2023/10/12 04:09:43;;;;;;;47.10;20.80;;;;;;;20.19;68.78;101633.81;5991782;23;20108;-79
2023/10/12 04:15:26;;;;;;;40.08;22.30;;;;;;;19.94;68.35;101579.16;5999391;23;20027;-78
2023/10/12 04:17:59;;;;;;;36.53;21.80;;;;;;;20.31;68.21;101649.59;5963314;23;20033;-79
2023/10/12 04:20:28;;;;;;;39.78;21.35;;;;;;;20.21;68.23;101628.25;5987691;23;20399;-78
2023/10/12 04:23:36;;;;;;;36.05;21.35;;;;;;;20.23;68.37;101637.84;6022781;23;20081;-78
2023/10/12 04:25:59;;;;;;;37.17;20.77;;;;;;;20.27;67.89;101638.34;6041032;23;20250;-79
2023/10/12 04:28:32;;;;;;;32.60;19.45;;;;;;;20.25;68.28;101630.41;6005432;23;20022;-79
2023/10/12 04:33:44;;;;;;;34.17;21.33;;;;;;;20.30;67.55;101627.19;6027511;23;20023;-79
2023/10/12 04:36:21;;;;;;;45.33;20.80;;;;;;;20.39;68.08;101646.84;5986869;23;20023;-79
2023/10/12 04:38:58;;;;;;;39.28;19.92;;;;;;;20.37;67.63;101643.53;5999888;23;20115;-81
2023/10/12 04:41:37;;;;;;;43.05;21.55;;;;;;;20.42;67.64;101652.75;5987835;23;20050;-78
2023/10/12 04:46:59;;;;;;;36.03;22.20;;;;;;;20.11;68.50;101633.00;6012913;23;20051;-80
2023/10/12 04:57:32;;;;;;;39.83;21.02;;;;;;;20.15;69.08;101650.53;6011774;23;20145;-79
2023/10/12 05:07:54;;;;;;;38.10;22.17;;;;;;;20.11;68.99;101651.88;6044306;23;20069;-79
2023/10/12 05:10:27;;;;;;;41.05;21.63;;;;;;;20.03;68.89;101641.97;5990325;23;20263;-78
2023/10/12 05:13:03;;;;;;;33.85;19.75;;;;;;;20.01;69.13;101639.44;6003616;23;20019;-80
2023/10/12 05:15:41;;;;;;;41.20;20.80;;;;;;;20.15;68.92;101658.63;5997605;23;20030;-80
2023/10/12 05:18:12;;;;;;;29.85;19.75;;;;;;;20.16;68.60;101658.41;6036008;23;20022;-80
2023/10/12 05:20:42;;;;;;;;;;;;;;;20.14;69.18;101665.00;6012779;23;20502;-79
2023/10/12 05:23:11;;;;;;;39.30;20.20;;;;;;;20.17;68.84;101665.50;6006242;23;19949;-79
2023/10/12 05:28:55;;;;;;;32.78;20.00;;;;;;;20.08;68.79;101666.53;6004474;23;20060;-78
2023/10/12 05:31:28;;;;;;;34.40;20.95;;;;;;;20.08;69.14;101666.53;5983828;23;20705;-79
2023/10/12 05:34:26;;;;;;;32.60;20.00;;;;;;;19.98;69.15;101655.13;6006355;23;20392;-79
2023/10/12 05:36:42;;;;;;;39.10;19.77;;;;;;;19.94;68.94;101649.22;6025304;23;20023;-79
2023/10/12 05:39:12;;;;;;;34.33;19.58;;;;;;;19.98;68.63;101661.34;6025439;23;20464;-78
2023/10/12 05:41:39;;;;;;;40.63;19.90;;;;;;;19.96;69.21;101654.44;5998020;23;20078;-78
2023/10/12 05:44:13;;;;;;;31.83;20.35;;;;;;;20.06;69.45;101685.56;6036850;23;20050;-77
2023/10/12 05:46:44;;;;;;;38.80;20.50;;;;;;;20.04;69.36;101681.38;5998579;23;20220;-79
2023/10/12 05:49:16;;;;;;;35.03;20.33;;;;;;;20.10;69.25;101686.09;5997210;23;20061;-78
2023/10/12 05:51:46;;;;;;;36.80;20.85;;;;;;;19.17;69.30;101546.47;5994271;23;20437;-79
2023/10/12 05:54:15;;;;;;;30.05;18.88;;;;;;;20.08;69.43;101690.81;5990148;23;20082;-81
2023/10/12 05:56:43;;;;;;;37.15;19.02;;;;;;;19.34;68.93;101566.97;5989454;23;20022;-80
2023/10/12 05:59:14;;;;;;;34.33;22.52;;;;;;;19.97;68.71;101664.22;6006908;23;20212;-80
2023/10/12 06:01:48;;;;;;;38.08;21.50;;;;;;;20.20;68.36;101699.38;6007287;23;20438;-79
2023/10/12 06:04:19;;;;;;;37.47;21.65;;;;;;;19.76;68.14;101630.59;5994844;23;20543;-79
2023/10/12 06:06:51;;;;;;;31.33;19.30;;;;;;;19.76;68.24;101627.06;6054490;23;20030;-80
2023/10/12 06:09:24;;;;;;;41.35;20.73;;;;;;;20.13;68.06;101688.44;6020466;23;20533;-80
2023/10/12 06:12:07;;;;;;;32.78;19.05;;;;;;;20.40;67.79;101718.69;6033157;23;20526;-81
2023/10/12 06:14:38;;;;;;;34.17;19.08;;;;;;;20.39;67.29;101706.19;6045157;23;20048;-79
2023/10/12 06:17:06;;;;;;;37.05;20.73;;;;;;;20.46;67.22;101723.34;6004153;23;20027;-80
2023/10/12 06:19:44;;;;;;;36.13;20.40;;;;;;;20.34;67.25;101703.19;6009674;23;20062;-80
2023/10/12 06:22:32;;;;;;;40.38;20.35;;;;;;;20.52;67.11;101736.16;6030124;23;20749;-81
2023/10/12 06:25:17;;;;;;;33.60;18.70;;;;;;;20.63;66.85;101735.81;6024857;23;20019;-81
2023/10/12 06:27:44;;;;;;;34.47;18.75;;;;;;;20.46;66.63;101709.88;6024985;23;20026;-82
2023/10/12 06:30:18;;;;;;;32.00;20.60;;;;;;;20.54;67.44;101733.31;5995184;23;20361;-79
2023/10/12 06:32:51;;;;;;;41.35;19.27;;;;;;;20.58;67.64;101738.19;5998913;23;20019;-79
2023/10/12 06:45:46;;;;;;;35.83;19.70;;;;;;;20.65;67.30;101741.03;6004479;23;20053;-78
2023/10/12 06:51:10;;;;;;;41.85;21.42;;;;;;;20.64;67.27;101737.50;6012493;23;20129;-80
2023/10/12 06:53:40;;;;;;;38.88;20.17;;;;;;;20.80;67.42;101760.88;5999332;23;20126;-81
2023/10/12 06:58:44;;;;;;;46.25;21.67;;;;;;;20.79;67.48;101755.66;6028623;23;20023;-78
2023/10/12 07:01:26;;;;;;;38.53;21.50;;;;;;;20.83;67.37;101757.81;5974804;23;20243;-80
2023/10/12 07:03:59;;;;;;;43.97;21.65;;;;;;;20.82;67.64;101755.28;5986705;23;20384;-80
2023/10/12 07:06:31;;;;;;;41.28;23.48;;;;;;;20.99;67.41;101778.47;6020618;23;20499;-79
2023/10/12 07:09:00;;;;;;;48.90;24.13;;;;;;;21.01;67.20;101781.00;5984715;23;20098;-80
2023/10/12 07:11:30;;;;;;;42.25;23.50;;;;;;;20.82;66.74;101745.31;6012285;23;20028;-82
2023/10/12 07:14:30;;;;;;;50.30;24.45;;;;;;;21.12;66.88;101786.84;5996811;23;20074;-79
2023/10/12 07:17:34;;;;;;;49.65;23.77;;;;;;;21.10;66.89;101778.09;5992661;23;20050;-79
2023/10/12 07:23:20;;;;;;;46.38;25.27;;;;;;;21.31;66.92;101803.59;6004294;23;20618;-81
2023/10/12 07:25:49;;;;;;;62.55;31.95;;;;;;;21.29;66.77;101776.81;5981655;23;20023;-81
2023/10/12 07:28:18;;;;;;;69.30;34.45;;;;;;;21.55;66.29;101797.25;6006953;23;20231;-82
2023/10/12 07:31:13;;;;;;;82.38;35.05;;;;;;;21.46;66.17;101774.03;6035427;23;20030;-81
2023/10/12 07:33:52;;;;;;;78.90;36.78;;;;;;;21.69;66.19;101790.22;6002624;23;20027;-81
2023/10/12 07:36:34;;;;;;;89.20;37.03;;;;;;;21.69;65.67;101790.22;6027827;23;20026;-81
2023/10/12 07:42:02;;;;;;;90.30;38.33;;;;;;;21.93;64.63;101786.47;6007402;23;20337;-80
2023/10/12 07:44:42;;;;;;;103.20;41.72;;;;;;;22.04;64.46;101804.09;6006024;23;20023;-81
2023/10/12 07:47:25;;;;;;;91.35;39.00;;;;;;;22.08;64.13;101791.91;5976366;23;20020;-82
2023/10/12 07:50:08;;;;;;;81.57;37.97;;;;;;;21.90;64.63;101770.63;5991194;23;20027;-80
2023/10/12 07:52:38;;;;;;;76.38;36.15;;;;;;;21.82;64.14;101747.22;5995826;23;20058;-79
2023/10/12 07:55:21;;;;;;;96.57;39.35;;;;;;;21.64;63.78;101708.88;5988886;23;20392;-78
2023/10/12 07:57:48;;;;;;;84.68;36.05;;;;;;;22.05;64.12;101786.88;5994559;23;20045;-80
2023/10/12 08:03:06;;;;;;;52.45;21.30;;;;;;;22.85;66.93;101812.44;6017519;23;20447;-76
2023/10/12 08:08:17;;;;;;;66.63;28.17;;;;;;;22.86;65.97;101814.09;6028452;23;20023;-79
2023/10/12 08:10:56;;;;;;;89.97;44.28;;;;;;;22.94;62.67;101812.13;5983790;23;20018;-78
2023/10/12 08:13:32;;;;;;;73.75;39.00;;;;;;;22.78;62.50;101807.75;6001050;23;20019;-78
2023/10/12 08:16:14;;;;;;;88.25;42.33;;;;;;;22.54;63.87;101810.75;5991665;23;20086;-79
2023/10/12 08:21:31;;;;;;;102.68;47.20;;;;;;;22.44;63.92;101802.91;6023608;23;20069;-78
2023/10/12 08:24:23;;;;;;;71.75;36.58;;;;;;;22.33;65.09;101787.97;6019202;23;20094;-77
2023/10/12 08:26:57;;;;;;;92.72;45.40;;;;;;;22.48;64.75;101806.09;6053034;23;20046;-77
2023/10/12 08:45:09;;;;;;;82.50;38.83;;;;;;;22.80;64.08;101775.91;6001821;23;20023;-77
2023/10/12 08:52:50;;;;;;;81.00;41.65;;;;;;;23.24;62.49;101796.69;6051522;23;20379;-77
2023/10/12 08:55:26;;;;;;;63.58;30.40;;;;;;;23.15;64.04;101791.56;6032562;23;20235;-77
2023/10/12 08:58:06;;;;;;;80.93;43.35;;;;;;;23.25;62.53;101792.09;6017585;23;20037;-78
2023/10/12 09:05:51;;;;;;;74.70;37.10;;;;;;;23.17;63.91;101789.50;6032059;23;20740;-77
2023/10/12 09:11:13;;;;;;;52.17;30.23;;;;;;;23.57;64.07;101793.50;6042149;23;20015;-77
2023/10/12 09:13:45;;;;;;;60.28;30.77;;;;;;;23.64;63.59;101794.41;6028763;23;20031;-77
2023/10/12 09:16:14;;;;;;;94.15;44.97;;;;;;;23.48;62.42;101770.25;6026008;23;20197;-78
2023/10/12 09:18:46;;;;;;;65.00;34.65;;;;;;;23.65;62.49;101793.34;5964222;23;20348;-76
2023/10/12 09:26:46;;;;;;;53.08;30.33;;;;;;;23.58;62.38;101792.44;6044441;23;19925;-78
2023/10/12 09:29:35;;;;;;;56.60;30.35;;;;;;;23.47;62.86;101779.41;5998988;23;20014;-76
2023/10/12 09:32:19;;;;;;;92.20;43.63;;;;;;;23.63;61.28;101790.00;5992263;23;20026;-76
2023/10/12 09:37:43;;;;;;;73.72;38.20;;;;;;;22.87;61.55;101678.56;6036189;23;20101;-76
2023/10/12 09:40:26;;;;;;;101.32;43.35;;;;;;;23.61;61.90;101786.63;5985130;23;20333;-77
2023/10/12 09:43:12;;;;;;;76.50;40.95;;;;;;;23.58;62.26;101794.34;6013997;23;20082;-79
2023/10/12 09:45:47;;;;;;;86.53;42.33;;;;;;;23.56;61.50;101786.38;5980396;23;20530;-78
2023/10/12 09:48:24;;;;;;;80.35;41.25;;;;;;;23.64;61.85;101797.13;6014932;23;20019;-78
2023/10/12 09:51:01;;;;;;;79.10;40.65;;;;;;;23.57;61.45;101769.09;6032069;23;20375;-76
2023/10/12 09:53:41;;;;;;;87.40;47.55;;;;;;;23.56;61.62;101775.53;6035415;23;20087;-77
2023/10/12 10:07:39;;;;;;;81.10;40.15;;;;;;;23.76;61.88;101761.34;5992350;23;20474;-77
2023/10/12 10:10:30;;;;;;;82.20;38.92;;;;;;;23.93;62.25;101770.88;6017052;23;20023;-77
2023/10/12 10:13:10;;;;;;;88.80;44.33;;;;;;;24.21;61.57;101783.63;6007055;23;20062;-82
2023/10/12 10:16:01;;;;;;;84.85;44.78;;;;;;;24.22;60.57;101785.28;6029541;23;20268;-77
2023/10/12 10:18:49;;;;;;;68.78;33.60;;;;;;;24.15;60.82;101770.84;6005003;23;20029;-79
2023/10/12 10:21:22;;;;;;;84.93;37.83;;;;;;;24.20;61.06;101779.22;6023788;23;20482;-77
2023/10/12 10:23:57;;;;;;;82.20;44.70;;;;;;;24.41;60.21;101792.72;5992407;23;20095;-77
2023/10/12 10:26:31;;;;;;;102.20;46.13;;;;;;;24.15;59.70;101717.41;5996235;23;20030;-77
2023/10/12 10:29:04;;;;;;;96.30;46.78;;;;;;;24.50;59.45;101761.69;6028890;23;20058;-79
2023/10/12 10:31:34;;;;;;;106.78;47.80;;;;;;;24.36;59.83;101708.34;6019621;23;20041;-78
2023/10/12 10:34:06;;;;;;;88.07;43.97;;;;;;;24.65;58.84;101747.16;6005795;23;20271;-77
2023/10/12 10:36:34;;;;;;;83.78;43.13;;;;;;;24.74;59.38;101732.38;6031375;23;20023;-77
2023/10/12 10:42:07;;;;;;;84.35;44.28;;;;;;;24.93;58.61;101737.03;5999892;23;20777;-78
2023/10/12 10:44:52;;;;;;;79.72;37.83;;;;;;;25.19;58.23;101750.91;5996285;23;20494;-78
2023/10/12 10:47:21;;;;;;;62.50;35.33;;;;;;;25.32;58.63;101757.22;5981490;23;20438;-79
2023/10/12 10:49:49;;;;;;;56.30;27.42;;;;;;;25.62;58.64;101750.56;6002908;23;20511;-79
2023/10/12 10:52:20;;;;;;;95.38;48.17;;;;;;;25.28;58.62;101744.25;5972744;23;20019;-78
2023/10/12 10:54:59;;;;;;;60.25;31.42;;;;;;;25.31;58.97;101739.22;5986702;23;20030;-78
2023/10/12 10:57:50;;;;;;;102.45;49.33;;;;;;;25.31;57.99;101736.50;6011887;23;20703;-80
2023/10/12 11:00:33;;;;;;;85.60;46.13;;;;;;;25.41;57.81;101738.00;6017823;23;20038;-79
2023/10/12 11:03:08;;;;;;;118.75;54.30;;;;;;;25.44;57.96;101740.28;5999257;23;20022;-79
2023/10/12 11:05:44;;;;;;;109.10;57.43;;;;;;;25.21;57.63;101716.22;6031820;23;20121;-78
2023/10/12 11:08:26;;;;;;;;;;;;;;;25.21;58.22;101730.66;5997486;23;20420;-79
2023/10/12 11:13:58;;;;;;;111.28;51.78;;;;;;;25.18;57.99;101701.19;5983880;23;20586;-78
2023/10/12 11:16:28;;;;;;;117.93;56.55;;;;;;;25.32;56.86;101721.91;6045437;23;20054;-77
2023/10/12 11:19:01;;;;;;;104.60;49.67;;;;;;;25.27;58.03;101727.13;6041377;23;20027;-78
2023/10/12 11:21:29;;;;;;;98.40;46.88;;;;;;;25.16;57.90;101714.09;6018912;23;20280;-78
2023/10/12 11:24:09;;;;;;;111.35;51.75;;;;;;;24.64;58.61;101631.47;6021191;23;20019;-79
2023/10/12 11:26:55;;;;;;;97.72;45.50;;;;;;;25.12;58.56;101702.81;6024849;23;20023;-79
2023/10/12 11:29:28;;;;;;;113.13;54.53;;;;;;;25.11;57.43;101697.59;6020632;23;20026;-78
2023/10/12 11:32:16;;;;;;;134.35;62.90;;;;;;;25.10;57.22;101693.22;6060475;23;20459;-79
2023/10/12 11:34:53;;;;;;;124.15;54.97;;;;;;;25.13;56.32;101671.06;6011949;23;20372;-79
2023/10/12 11:37:20;;;;;;;92.72;43.78;;;;;;;25.10;58.11;101691.31;6033792;23;20110;-77
2023/10/12 11:39:52;;;;;;;121.70;54.97;;;;;;;25.10;58.06;101674.19;6004783;23;20451;-78
2023/10/12 11:42:19;;;;;;;132.07;58.08;;;;;;;25.09;56.91;101683.38;6025935;23;20027;-78
2023/10/12 11:44:51;;;;;;;114.78;55.30;;;;;;;25.07;57.05;101677.28;6025311;23;20272;-77
2023/10/12 11:47:24;;;;;;;110.35;50.70;;;;;;;25.15;57.47;101669.78;6011802;23;20216;-78
2023/10/12 11:49:56;;;;;;;118.43;58.53;;;;;;;25.21;56.61;101660.00;6016667;23;20023;-78
2023/10/12 11:52:33;;;;;;;94.72;40.38;;;;;;;25.44;57.09;101661.47;6006851;23;20411;-79
2023/10/12 11:55:27;;;;;;;108.80;49.58;;;;;;;25.27;57.26;101623.84;6041061;23;20487;-80
2023/10/12 11:57:54;;;;;;;120.60;54.70;;;;;;;25.22;57.38;101653.53;6007961;23;20470;-77
2023/10/12 12:00:26;;;;;;;112.55;51.17;;;;;;;25.20;56.74;101649.38;6056006;23;20271;-77
2023/10/12 12:02:59;;;;;;;61.90;35.47;;;;;;;25.05;57.63;101592.44;6016007;23;20209;-77
2023/10/12 12:05:30;;;;;;;121.93;55.53;;;;;;;25.18;54.44;101625.09;5996940;23;20027;-78
2023/10/12 12:08:14;;;;;;;75.90;38.85;;;;;;;25.25;56.39;101642.25;6010576;23;20065;-78
2023/10/12 12:10:53;;;;;;;112.80;54.63;;;;;;;25.26;55.78;101641.19;6040042;23;20019;-78
2023/10/12 12:13:21;;;;;;;123.85;53.58;;;;;;;25.25;55.67;101614.25;6008428;23;20447;-77
2023/10/12 12:15:49;;;;;;;108.60;52.25;;;;;;;25.33;54.93;101617.56;5998595;23;20419;-77
2023/10/12 12:18:19;;;;;;;;;;;;;;;25.30;53.99;101623.44;6003097;23;20781;-79
2023/10/12 12:20:58;;;;;;;94.97;43.78;;;;;;;25.29;55.60;101616.34;6005144;23;19989;-78
2023/10/12 12:23:28;;;;;;;69.15;35.67;;;;;;;25.16;56.75;101591.84;6008928;23;20094;-81
2023/10/12 12:26:14;;;;;;;124.75;55.85;;;;;;;25.25;56.04;101620.50;5991306;23;20204;-77
2023/10/12 12:28:44;;;;;;;125.93;56.27;;;;;;;25.37;54.41;101613.41;5997280;23;20541;-77
2023/10/12 12:31:15;;;;;;;117.18;52.78;;;;;;;25.40;54.43;101614.03;6012088;23;20098;-76
2023/10/12 12:33:45;;;;;;;77.60;39.55;;;;;;;25.36;55.87;101594.56;6010592;23;20039;-79
2023/10/12 12:36:22;;;;;;;109.82;51.80;;;;;;;25.56;55.83;101611.72;6010066;23;20403;-78
2023/10/12 12:39:00;;;;;;;67.20;33.88;;;;;;;25.46;56.99;101594.13;6011207;23;20026;-77
2023/10/12 12:41:30;;;;;;;76.53;38.35;;;;;;;25.23;57.23;101606.28;6033314;23;20050;-78
2023/10/12 12:43:59;;;;;;;87.03;39.83;;;;;;;25.21;56.85;101613.81;6032593;23;20027;-79
2023/10/12 12:46:26;;;;;;;72.35;36.40;;;;;;;24.93;56.28;101571.34;6018541;23;20108;-78
2023/10/12 12:48:53;;;;;;;112.18;52.17;;;;;;;25.26;54.36;101614.00;6013179;23;20369;-78
2023/10/12 12:51:22;;;;;;;77.32;40.42;;;;;;;25.19;55.48;101610.47;6021980;23;20380;-78
2023/10/12 12:53:52;;;;;;;106.93;50.03;;;;;;;25.20;54.81;101606.72;5997995;23;20025;-78
2023/10/12 12:56:27;;;;;;;94.13;46.42;;;;;;;25.29;55.65;101613.63;6017393;23;20117;-77
2023/10/12 12:59:00;;;;;;;121.30;53.60;;;;;;;25.12;55.15;101587.84;6024711;23;20384;-77
2023/10/12 13:01:27;;;;;;;71.38;34.85;;;;;;;25.17;57.11;101579.94;6020228;23;20455;-77
2023/10/12 13:03:57;;;;;;;62.33;32.33;;;;;;;25.35;57.73;101593.75;6045125;23;20046;-77
2023/10/12 13:06:24;;;;;;;91.30;40.33;;;;;;;25.14;56.61;101591.19;6005723;23;20326;-78
2023/10/12 13:08:52;;;;;;;92.93;45.97;;;;;;;25.21;55.11;101592.06;6008274;23;20276;-78
2023/10/12 13:11:20;;;;;;;86.55;43.53;;;;;;;25.29;55.88;101577.44;6042621;23;20023;-77
2023/10/12 13:13:48;;;;;;;98.38;50.22;;;;;;;24.98;54.21;101521.84;6011133;23;20082;-78
2023/10/12 13:16:16;;;;;;;68.72;36.35;;;;;;;25.42;55.94;101582.03;6038375;23;20019;-78
2023/10/12 13:18:46;;;;;;;106.93;50.15;;;;;;;25.22;54.63;101577.47;6002381;23;20034;-79
2023/10/12 13:21:15;;;;;;;84.10;38.75;;;;;;;25.18;55.76;101570.75;6047325;23;20185;-79
2023/10/12 13:23:49;;;;;;;92.50;46.28;;;;;;;25.18;54.40;101545.47;6013651;23;20018;-79
2023/10/12 13:26:21;;;;;;;94.93;46.63;;;;;;;25.34;54.16;101574.91;6017920;23;20220;-76
2023/10/12 13:28:52;;;;;;;65.13;36.05;;;;;;;25.13;55.74;101540.63;6023566;23;20072;-77
2023/10/12 13:31:23;;;;;;;76.03;41.90;;;;;;;25.28;55.99;101567.63;6020646;23;20030;-75
2023/10/12 13:33:51;;;;;;;67.72;32.55;;;;;;;25.17;57.00;101558.22;6001384;23;20664;-77
2023/10/12 13:36:27;;;;;;;77.95;43.42;;;;;;;25.26;55.78;101567.81;6030891;23;20253;-77
2023/10/12 13:39:32;;;;;;;102.10;46.05;;;;;;;25.26;54.52;101567.81;6020186;23;20420;-76
2023/10/12 13:41:59;;;;;;;84.57;39.92;;;;;;;25.30;54.42;101547.34;6037680;23;20022;-79
2023/10/12 13:44:29;;;;;;;92.70;47.17;;;;;;;25.37;54.20;101531.84;6016333;23;20024;-78
2023/10/12 13:47:04;;;;;;;87.25;41.72;;;;;;;25.54;53.74;101553.16;6030025;23;20027;-78
2023/10/12 13:49:32;;;;;;;78.20;37.47;;;;;;;25.63;54.84;101551.84;6023159;23;20030;-78
2023/10/12 13:52:09;;;;;;;90.93;45.72;;;;;;;25.58;53.08;101543.50;6017400;23;20033;-78
2023/10/12 13:54:45;;;;;;;102.47;49.30;;;;;;;25.55;52.70;101544.78;6008789;23;20323;-78
2023/10/12 13:57:14;;;;;;;90.25;44.80;;;;;;;25.63;53.02;101540.16;5994998;23;20023;-76